Tiempo atmosférico en la estación meteorológica de Noia, A Coruña (128 m.)



Fecha
DESCASC
Temp. máxima en grados centígrados (hora)
DESCASC
Temp. mínima en grados centígrados (hora)
DESCASC
Temp. media en grados centígrados
DESCASC
Racha de viento máxima en m/sg (hora)
DESCASC
Velocidad máxima media en intervalos de 10 minutos(hora)
DESCASC
Precipitaciones diarias en mm
DESCASC
Precipitaciones de 00:00 a 06:00 en mm
DESCASC
Precipitaciones de 06:00 a 12:00 en mm
DESCASC
Precipitaciones de 12:00 a 18:00 en mm
DESCASC
Precipitaciones de 18:00 a 24:00 en mm
DESCASC
05-04-2020 16.3 (00:00) 11.5 (23:59) 13.9 14.17 (11:40) 5.83 (09:10) 32.2 2.8 16.4 13 0
04-04-2020 21.3 (15:30) 9.5 (07:00) 15.4 8.61 (16:30) 3.33 (23:50) 0 0 0 0 0
03-04-2020 18.3 (16:40) 5.5 (09:10) 11.9 7.78 (03:20) 2.5 (03:40) 0 0 0 0 0
02-04-2020 17.3 (16:40) 8.8 (00:00) 13 8.33 (15:20) 3.06 (13:20) 0 0 0 0 0
01-04-2020 15.7 (17:50) 6.6 (00:00) 11.1 6.67 (18:20) 1.67 (18:10) 0.8 0.8 0 0 0
31-03-2020 10 (12:50) 4.1 (00:00) 7 12.22 (13:40) 3.89 (13:40) 3.2 0 0 1.4 1.8
30-03-2020 12.1 (14:40) 5.3 (00:00) 8.7 15 (10:30) 6.11 (13:30) 0 0 0 0 0
29-03-2020 20.1 (16:30) 7.7 (00:00) 13.9 7.5 (21:10) 2.22 (20:50) 0 0 0 0 0
28-03-2020 18.1 (12:40) 5.7 (00:00) 11.9 5.28 (15:00) 1.67 (06:50) 0 0 0 0 0
27-03-2020 16.3 (14:10) 5.5 (00:00) 10.9 8.06 (11:30) 3.33 (12:00) 0 0 0 0 0
26-03-2020 18.5 (14:30) 6.4 (00:00) 12.5 6.11 (23:10) 1.67 (14:00) 0 0 0 0 0
25-03-2020 17.3 (15:50) 8.5 (00:00) 12.9 5.83 (16:40) 1.39 (16:40) 0 0 0 0 0
24-03-2020 21.5 (13:50) 8.4 (00:00) 14.9 5.28 (15:30) 1.94 (09:10) 0 0 0 0 0
23-03-2020 17.4 (15:00) 9.3 (00:00) 13.3 6.94 (20:00) 2.5 (11:10) 0 0 0 0 0
22-03-2020 18.5 (15:40) 10.2 (07:50) 14.3 5.83 (18:10) 2.22 (18:40) 0.2 0.2 0 0 0
21-03-2020 16.7 (13:10) 10.7 (00:00) 13.7 4.72 (14:30) 1.94 (06:00) 1.4 0.2 0.2 0 1
20-03-2020 13.9 (13:00) 11.3 (00:00) 12.6 3.89 (06:00) 1.94 (06:00) 6.2 3.6 0.4 1.2 1
19-03-2020 19.5 (13:30) 9.7 (00:00) 14.6 4.44 (04:50) 1.94 (05:00) 0 0 0 0 0
18-03-2020 23.8 (15:30) 10.6 (00:00) 17.2 4.17 (03:10) 1.94 (09:50) 0 0 0 0 0
17-03-2020 20.1 (16:00) 7.5 (00:00) 13.8 9.17 (02:20) 2.5 (21:20) 0 0 0 0 0
16-03-2020 13 (14:10) 4.1 (00:00) 8.5 10 (15:40) 2.5 (15:20) 1.6 1 0.6 0 0
15-03-2020 10.6 (10:40) 4.6 (00:00) 7.6 5 (11:10) 2.78 (08:40) 6.6 0 2.6 2 2
14-03-2020 18.7 (16:20) 6.5 (00:00) 12.6 5.28 (13:50) 2.22 (14:00) 0 0 0 0 0
13-03-2020 13.9 (16:00) 8.1 (02:20) 11 9.17 (12:10) 3.61 (12:10) 0 0 0 0 0
12-03-2020 14.1 (12:10) 8.8 (00:00) 11.5 9.17 (17:30) 2.78 (17:30) 0 0 0 0 0
11-03-2020 15.6 (14:30) 10.5 (00:00) 13.1 3.89 (14:30) 1.39 (00:30) 0 0 0 0 0
10-03-2020 12.9 (13:40) 8.4 (00:00) 10.6 5.28 (14:00) 2.5 (13:50) 0 0 0 0 0
09-03-2020 14.5 (15:30) 6.1 (00:00) 10.3 5.28 (15:50) 1.67 (10:10) 0 0 0 0 0

Gráficas

Temp. máximas Temp. mínimas Temp. medias Precipitaciones Rachas de viento máximas Velocidades máximas media en intervalos de 10 minutos

Datos horarios

Fecha y hora oficial Temperatura (ºC) Velocidad del viento (km/h) Dirección del viento Racha (km/h) Dirección de racha Precipitación (mm) Presión (hPa) Tendencia (hPa) Humedad (%)
2020-04-07 23:00:00 13.8 5 Sudeste 13 Sudeste 0 -- -- 94
2020-04-07 22:00:00 13.7 2 Sur 6 Sur 0 -- -- 94
2020-04-07 21:00:00 14.4 0 Calma 5 Noroeste 0 -- -- 93
2020-04-07 20:00:00 15.1 2 Oeste 11 Noroeste 0 -- -- 91
2020-04-07 19:00:00 15.8 3 Noroeste 12 Oeste 0 -- -- 88
2020-04-07 18:00:00 16.3 2 Noroeste 14 Sur 0 -- -- 89
2020-04-07 17:00:00 16.6 3 Oeste 15 Oeste 0 -- -- 86
2020-04-07 16:00:00 17 2 Sudoeste 10 Oeste 0 -- -- 84
2020-04-07 15:00:00 18 3 Noroeste 17 Sur 0 -- -- 83
2020-04-07 14:00:00 17.7 6 Sur 21 Sudeste 0 -- -- 84
2020-04-07 13:00:00 15.7 4 Sudeste 10 Sudoeste 0 -- -- 97
2020-04-07 12:00:00 14.2 0 Calma 4 Sudeste 1.2 -- -- 97
2020-04-07 11:00:00 13.7 0 Calma 4 Sudeste 0 -- -- 97
2020-04-07 10:00:00 12.9 2 Este 6 Nordeste 0 -- -- 96
2020-04-07 09:00:00 12.5 0 Calma 5 Este 1.2 -- -- 95
2020-04-07 08:00:00 12.5 0 Calma 5 Sudeste 0 -- -- 92
2020-04-07 07:00:00 13.1 3 Este 9 Nordeste 0 -- -- 83
2020-04-07 06:00:00 12.9 3 Nordeste 7 Nordeste 0 -- -- 84
2020-04-07 05:00:00 12.9 0 Calma 6 Este 0 -- -- 84
2020-04-07 04:00:00 12.7 0 Calma 4 Nordeste 0 -- -- 86
2020-04-07 03:00:00 12.9 0 Calma 4 Este 0 -- -- 84
2020-04-07 02:00:00 13.5 0 Calma 13 Sudeste 0 -- -- 81
2020-04-07 01:00:00 13.7 4 Sudeste 13 Sudeste 0 -- -- 79
2020-04-07 00:00:00 12.9 3 Este 10 Nordeste 0 -- -- 81
2020-04-06 23:00:00 13.4 0 Calma 5 Norte 0 -- -- 78
2020-04-06 22:00:00 14.2 0 Calma 9 Nordeste 0 -- -- 76
2020-04-06 21:00:00 14.9 2 Este 7 Este 0 -- -- 69
2020-04-06 20:00:00 15.7 3 Este 14 Sudeste 0 -- -- 65
2020-04-06 19:00:00 16.4 3 Sudeste 13 Sudeste 0 -- -- 69
2020-04-06 18:00:00 16.9 4 Sudeste 11 Sudeste 0 -- -- 65
2020-04-06 17:00:00 16.3 0 Calma 5 Sur 0 -- -- 71
2020-04-06 16:00:00 16.1 4 Sur 11 Sudoeste 0 -- -- 69
2020-04-06 15:00:00 16.1 3 Sur 10 Sur 0 -- -- 69
2020-04-06 14:00:00 15.9 0 Calma 5 Sudeste 0 -- -- 74
2020-04-06 13:00:00 15.4 0 Calma 10 Sur 0 -- -- 82
2020-04-06 12:00:00 13.4 2 Nordeste 8 Nordeste 0 -- -- 89
2020-04-06 11:00:00 12.2 2 Nordeste 5 Este 0 -- -- 96
2020-04-06 10:00:00 10.9 0 Calma 5 Sudeste 0 -- -- 100
2020-04-06 09:00:00 10.2 3 Este 5 Este 0 -- -- 100
2020-04-06 08:00:00 10.3 0 Calma 4 Sur 0 -- -- 100
2020-04-06 07:00:00 10.2 0 Calma 6 Sudeste 0 -- -- 99
2020-04-06 06:00:00 10.4 0 Calma 8 Sudeste 0 -- -- 99
2020-04-06 05:00:00 10.1 4 Sudeste 9 Este 0 -- -- 99
2020-04-06 04:00:00 10.2 3 Sudeste 5 Este 0 -- -- 99
2020-04-06 03:00:00 10.5 0 Calma 4 Sudeste 0 -- -- 98
2020-04-06 02:00:00 10.6 2 Sudeste 4 Sur 0 -- -- 98
2020-04-06 01:00:00 10.9 0 Calma 4 Sudeste 0.2 -- -- 97
2020-04-06 00:00:00 11.5 2 Este 3 Sudoeste 0 -- -- 96
2020-04-05 23:00:00 12.1 0 Calma 7 Oeste 0 -- -- 96
2020-04-05 22:00:00 12.7 0 Calma 10 Noroeste 0 -- -- 95
2020-04-05 21:00:00 13.7 0 Calma 10 Oeste 0 -- -- 94
2020-04-05 20:00:00 14.4 3 Oeste 14 Noroeste 0 -- -- 91
2020-04-05 19:00:00 15 4 Noroeste 23 Oeste 0 -- -- 88
2020-04-05 18:00:00 15.2 5 Oeste 28 Noroeste 0 -- -- 88
2020-04-05 17:00:00 15.6 5 Oeste 35 Sudoeste 0 -- -- 91
2020-04-05 16:00:00 14.7 9 Sudoeste 35 Sur 0 -- -- 94
2020-04-05 15:00:00 14.2 6 Sudoeste 38 Sudoeste 4 -- -- 97
2020-04-05 14:00:00 14.2 8 Sudoeste 47 Sur 3 -- -- 97
2020-04-05 13:00:00 14.3 15 Sur 46 Sur 6 -- -- 97
2020-04-05 12:00:00 14.4 16 Sur 51 Sur 0.4 -- -- 95
2020-04-05 11:00:00 14.4 19 Sur 46 Sur 1 -- -- 95
2020-04-05 10:00:00 13.9 15 Sur 48 Sur 2 -- -- 97
2020-04-05 09:00:00 13.7 18 Sur 45 Sur 6.8 -- -- 97
2020-04-05 08:00:00 13.2 13 Sur 30 Sur 2.8 -- -- 95
2020-04-05 07:00:00 12.9 12 Sur 33 Sur 3.4 -- -- 95
2020-04-05 06:00:00 13.1 13 Sur 34 Sur 0.8 -- -- 91
2020-04-05 05:00:00 13.5 12 Sur 45 Sur 1 -- -- 89
2020-04-05 04:00:00 14.4 19 Sur 48 Sur 0.6 -- -- 83
2020-04-05 03:00:00 14.1 9 Sur 31 Sur 0.4 -- -- 80
2020-04-05 02:00:00 15.7 12 Sur 37 Sudeste 0 -- -- 64
2020-04-05 01:00:00 15.4 11 Sur 32 Sur 0 -- -- 67
2020-04-05 00:00:00 16.3 10 Sur 31 Sur 0 -- -- 59
2020-04-04 23:00:00 15.3 4 Sudoeste 16 Sur 0 -- -- 66
2020-04-04 22:00:00 15.4 5 Sur 17 Sur 0 -- -- 64
2020-04-04 21:00:00 15.4 8 Sur 24 Sudeste 0 -- -- 65
2020-04-04 20:00:00 15.7 9 Sudeste 25 Sur 0 -- -- 67
2020-04-04 19:00:00 16.5 10 Sur 26 Sudeste 0 -- -- 60
2020-04-04 18:00:00 17.8 10 Sur 24 Sudeste 0 -- -- 54
2020-04-04 17:00:00 19.4 10 Sur 31 Sur 0 -- -- 48
2020-04-04 16:00:00 20.7 9 Sudoeste 24 Sur 0 -- -- 40
2020-04-04 15:00:00 21.1 7 Sur 30 Sur 0 -- -- 42
2020-04-04 14:00:00 19.8 9 Sur 27 Sudoeste 0 -- -- 46
2020-04-04 13:00:00 20 6 Sur 19 Sudoeste 0 -- -- 48
2020-04-04 12:00:00 18.5 3 Sur 9 Sudoeste 0 -- -- 50
2020-04-04 11:00:00 17.1 4 Sur 9 Sudeste 0 -- -- 49
2020-04-04 10:00:00 13.4 4 Sudeste 13 Sudeste 0 -- -- 65
2020-04-04 09:00:00 12.1 8 Sudeste 16 Sudeste 0 -- -- 67
2020-04-04 08:00:00 11 5 Sudeste 13 Sudeste 0 -- -- 74
2020-04-04 07:00:00 9.5 0 Calma 8 Este 0 -- -- 84
2020-04-04 06:00:00 10.3 2 Sudeste 9 Nordeste 0 -- -- 81
2020-04-04 05:00:00 10 4 Nordeste 8 Este 0 -- -- 83
2020-04-04 04:00:00 10.3 3 Este 8 Sudeste 0 -- -- 81
2020-04-04 03:00:00 11.2 5 Este 14 Este 0 -- -- 75
2020-04-04 02:00:00 11.1 5 Nordeste 9 Nordeste 0 -- -- 75
2020-04-04 01:00:00 10.9 0 Calma 4 Nordeste 0 -- -- 77
2020-04-04 00:00:00 11.7 0 Calma 9 Este 0 -- -- 73
2020-04-03 23:00:00 12.1 4 Este 10 Este 0 -- -- 70
2020-04-03 22:00:00 12.5 0 Calma 4 Este 0 -- -- 67
2020-04-03 21:00:00 14.6 0 Calma 8 Noroeste 0 -- -- 64
2020-04-03 20:00:00 15.9 0 Calma 10 Oeste 0 -- -- 59
2020-04-03 19:00:00 16.8 2 Noroeste 10 Oeste 0 -- -- 58
2020-04-03 18:00:00 16.6 0 Calma 14 Noroeste 0 -- -- 65
2020-04-03 17:00:00 17.7 5 Noroeste 18 Oeste 0 -- -- 60
2020-04-03 16:00:00 17.3 4 Oeste 21 Oeste 0 -- -- 61
2020-04-03 15:00:00 17.1 5 Noroeste 17 Noroeste 0 -- -- 59
2020-04-03 14:00:00 17.4 4 Sudoeste 20 Sur 0 -- -- 55
2020-04-03 13:00:00 16.9 6 Sudeste 17 Sur 0 -- -- 52
2020-04-03 12:00:00 14.5 4 Sur 10 Sur 0 -- -- 65
2020-04-03 11:00:00 11.3 0 Calma 10 Nordeste 0 -- -- 76
2020-04-03 10:00:00 6.9 3 Nordeste 7 Nordeste 0 -- -- 87
2020-04-03 09:00:00 5.6 2 Nordeste 10 Este 0 -- -- 90
2020-04-03 08:00:00 5.7 3 Nordeste 9 Sudeste 0 -- -- 89
2020-04-03 07:00:00 6.2 2 Nordeste 8 Nordeste 0 -- -- 88
2020-04-03 06:00:00 6.5 3 Nordeste 7 Norte 0 -- -- 87
2020-04-03 05:00:00 7.1 2 Este 6 Oeste 0 -- -- 85
2020-04-03 04:00:00 8.2 0 Calma 28 Sudeste 0 -- -- 81
2020-04-03 03:00:00 8.8 5 Este 27 Nordeste 0 -- -- 79
2020-04-03 02:00:00 8.8 3 Nordeste 14 Nordeste 0 -- -- 81
2020-04-03 01:00:00 8.9 4 Nordeste 13 Norte 0 -- -- 81
2020-04-03 00:00:00 8.8 2 Nordeste 10 Norte 0 -- -- 85
2020-04-02 23:00:00 9.5 2 Norte 19 Nordeste 0 -- -- 84
2020-04-02 22:00:00 10.3 3 Noroeste 16 Norte 0 -- -- 82
2020-04-02 21:00:00 11.6 3 Noroeste 17 Nordeste 0 -- -- 78
2020-04-02 20:00:00 13.4 6 Nordeste 20 Norte 0 -- -- 72
2020-04-02 19:00:00 15.2 5 Norte 24 Nordeste 0 -- -- 66
2020-04-02 18:00:00 16.2 5 Norte 21 Nordeste 0 -- -- 65
2020-04-02 17:00:00 17 6 Nordeste 26 Este 0 -- -- 58
2020-04-02 16:00:00 16.6 6 Nordeste 30 Este 0 -- -- 59
2020-04-02 15:00:00 16.6 5 Nordeste 28 Este 0 -- -- 64
2020-04-02 14:00:00 16.1 5 Este 28 Este 0 -- -- 63
2020-04-02 13:00:00 16 6 Norte 24 Norte 0 -- -- 64
2020-04-02 12:00:00 13.9 4 Nordeste 23 Norte 0 -- -- 73
2020-04-02 11:00:00 12.8 4 Este 18 Este 0 -- -- 77
2020-04-02 10:00:00 11.8 4 Norte 19 Norte 0 -- -- 83
2020-04-02 09:00:00 10.8 3 Norte 22 Norte 0 -- -- 86
2020-04-02 08:00:00 10.6 3 Norte 18 Nordeste 0 -- -- 86
2020-04-02 07:00:00 10.6 0 Calma 16 Nordeste 0 -- -- 87
2020-04-02 06:00:00 10.5 2 Noroeste 9 Norte 0 -- -- 89
2020-04-02 05:00:00 10.5 0 Calma 13 Sudeste 0 -- -- 89
2020-04-02 04:00:00 10.4 3 Noroeste 14 Oeste 0 -- -- 86
2020-04-02 03:00:00 11.2 2 Norte 14 Nordeste 0 -- -- 83
2020-04-02 02:00:00 11.4 3 Nordeste 18 Norte 0 -- -- 82
2020-04-02 01:00:00 11.3 4 Nordeste 15 Norte 0 -- -- 83
2020-04-02 00:00:00 11.2 3 Norte 17 Este 0 -- -- 85
2020-04-01 23:00:00 11.1 0 Calma 9 Norte 0 -- -- 84
2020-04-01 22:00:00 12.2 3 Nordeste 12 Sudeste 0 -- -- 79
2020-04-01 21:00:00 12.8 0 Calma 5 Norte 0 -- -- 78
2020-04-01 20:00:00 13.6 2 Norte 17 Nordeste 0 -- -- 74
2020-04-01 19:00:00 14.6 6 Nordeste 24 Norte 0 -- -- 69
2020-04-01 18:00:00 15.7 4 Norte 18 Oeste 0 -- -- 69
2020-04-01 17:00:00 14.1 0 Calma 16 Noroeste 0 -- -- 72
2020-04-01 16:00:00 15.4 4 Noroeste 21 Oeste 0 -- -- 62
2020-04-01 15:00:00 14.7 5 Noroeste 21 Noroeste 0 -- -- 66
2020-04-01 14:00:00 14.2 2 Noroeste 10 Oeste 0 -- -- 61
2020-04-01 13:00:00 13.4 0 Calma 10 Nordeste 0 -- -- 75
2020-04-01 12:00:00 12.9 3 Norte 11 Nordeste 0 -- -- 77
2020-04-01 11:00:00 11.1 0 Calma 6 Este 0 -- -- 81
2020-04-01 10:00:00 7.1 0 Calma 4 Sudeste 0 -- -- 98
2020-04-01 09:00:00 6.9 0 Calma 4 Nordeste 0 -- -- 98
2020-04-01 08:00:00 6.6 2 Este 4 Nordeste 0 -- -- 97
2020-04-01 07:00:00 6.9 2 Este 4 Nordeste 0 -- -- 96
2020-04-01 06:00:00 7.2 0 Calma 5 Este 0 -- -- 96
2020-04-01 05:00:00 7.3 2 Este 4 Este 0.2 -- -- 96
2020-04-01 04:00:00 7.3 0 Calma 6 Este 0.2 -- -- 95
2020-04-01 03:00:00 7.9 2 Este 10 Este 0.4 -- -- 89
2020-04-01 02:00:00 7.7 3 Este 8 Este 0 -- -- 91
2020-04-01 01:00:00 7.7 2 Nordeste 14 Nordeste 0 -- -- 91
2020-04-01 00:00:00 7.6 2 Nordeste 10 Nordeste 0 -- -- 93
2020-03-31 23:00:00 7.5 0 Calma 19 Norte 0.2 -- -- 94
2020-03-31 22:00:00 7.5 3 Nordeste 19 Este 0.2 -- -- 93
2020-03-31 21:00:00 7.7 2 Nordeste 13 Norte 0.8 -- -- 91
2020-03-31 20:00:00 8.2 3 Nordeste 17 Este 0.4 -- -- 86
2020-03-31 19:00:00 9.1 5 Este 19 Este 0.2 -- -- 76
2020-03-31 18:00:00 9.5 5 Nordeste 19 Nordeste 0.2 -- -- 76
2020-03-31 17:00:00 9.8 5 Este 24 Este 0.2 -- -- 69
2020-03-31 16:00:00 8.5 5 Este 13 Este 0 -- -- 75
2020-03-31 15:00:00 6.7 6 Este 19 Sudeste 1 -- -- 81
2020-03-31 14:00:00 7 11 Sudeste 44 Este 0 -- -- 75
2020-03-31 13:00:00 9.9 13 Sudeste 31 Sudeste 0 -- -- 52
2020-03-31 12:00:00 8.8 8 Este 29 Nordeste 0 -- -- 60
2020-03-31 11:00:00 7.7 8 Nordeste 24 Este 0 -- -- 65
2020-03-31 10:00:00 5.6 6 Este 26 Nordeste 0 -- -- 74
2020-03-31 09:00:00 4.2 3 Nordeste 15 Este 0 -- -- 78
2020-03-31 08:00:00 4.3 3 Nordeste 27 Norte 0 -- -- 76
2020-03-31 07:00:00 4.6 3 Nordeste 21 Este 0 -- -- 74
2020-03-31 06:00:00 4.8 5 Nordeste 22 Este 0 -- -- 73
2020-03-31 05:00:00 5.1 6 Este 25 Sudeste 0 -- -- 72
2020-03-31 04:00:00 5.3 5 Este 25 Este 0 -- -- 71
2020-03-31 03:00:00 5.4 5 Este 23 Nordeste 0 -- -- 71
2020-03-31 02:00:00 5.3 6 Nordeste 32 Este 0 -- -- 71
2020-03-31 01:00:00 5.2 8 Este 34 Sudeste 0 -- -- 73
2020-03-31 00:00:00 5.4 7 Este 29 Nordeste 0 -- -- 72
2020-03-30 23:00:00 5.8 5 Nordeste 34 Nordeste 0 -- -- 67
2020-03-30 22:00:00 6.3 8 Este 30 Nordeste 0 -- -- 60
2020-03-30 21:00:00 7 7 Este 47 Este 0 -- -- 56
2020-03-30 20:00:00 8.6 9 Este 42 Este 0 -- -- 54
2020-03-30 19:00:00 9.8 12 Este 42 Sudeste 0 -- -- 46
2020-03-30 18:00:00 10.8 10 Este 43 Este 0 -- -- 41
2020-03-30 17:00:00 11.2 14 Este 41 Nordeste 0 -- -- 45
2020-03-30 16:00:00 11.6 14 Este 47 Sudeste 0 -- -- 42
2020-03-30 15:00:00 11.3 9 Nordeste 45 Sudeste 0 -- -- 47
2020-03-30 14:00:00 11.4 15 Este 52 Este 0 -- -- 45
2020-03-30 13:00:00 11 16 Este 53 Sudeste 0 -- -- 49
2020-03-30 12:00:00 10.3 15 Este 46 Sudeste 0 -- -- 51
2020-03-30 11:00:00 9.8 12 Este 54 Sudeste 0 -- -- 53
2020-03-30 10:00:00 8.1 12 Este 36 Nordeste 0 -- -- 60
2020-03-30 09:00:00 7.4 11 Este 38 Nordeste 0 -- -- 65
2020-03-30 08:00:00 7.6 10 Este 33 Noroeste 0 -- -- 63
2020-03-30 07:00:00 7.8 8 Nordeste 40 Nordeste 0 -- -- 56
2020-03-30 06:00:00 7.8 4 Nordeste 32 Nordeste 0 -- -- 68
2020-03-30 05:00:00 8.4 6 Nordeste 38 Nordeste 0 -- -- 69
2020-03-30 04:00:00 8.6 5 Nordeste 28 Este 0 -- -- 70
2020-03-30 03:00:00 9 5 Nordeste 37 Norte 0 -- -- 72
2020-03-30 02:00:00 9.4 4 Noroeste 27 Este 0 -- -- 72
2020-03-30 01:00:00 10.2 7 Nordeste 22 Nordeste 0 -- -- 71
2020-03-30 00:00:00 10.6 3 Norte 21 Nordeste 0 -- -- 72
2020-03-29 23:00:00 11.4 6 Norte 23 Nordeste 0 -- -- 68
2020-03-29 22:00:00 12.4 4 Norte 27 Sudeste 0 -- -- 59
2020-03-29 21:00:00 14.1 6 Nordeste 24 Este 0 -- -- 47
2020-03-29 20:00:00 16.5 8 Este 24 Sudeste 0 -- -- 50
2020-03-29 19:00:00 18.3 4 Este 21 Este 0 -- -- 52
2020-03-29 18:00:00 19.2 6 Nordeste 18 Este 0 -- -- 45
2020-03-29 17:00:00 20 5 Nordeste 19 Norte 0 -- -- 43
2020-03-29 16:00:00 19.7 5 Nordeste 21 Nordeste 0 -- -- 47
2020-03-29 15:00:00 19 6 Nordeste 19 Nordeste 0 -- -- 49
2020-03-29 14:00:00 18.1 4 Norte 16 Norte 0 -- -- 54
2020-03-29 13:00:00 16.6 4 Norte 12 Este 0 -- -- 57
2020-03-29 12:00:00 14.1 5 Nordeste 15 Norte 0 -- -- 65
2020-03-29 11:00:00 12.1 3 Norte 14 Norte 0 -- -- 72
2020-03-29 10:00:00 8.5 0 Calma 6 Sudeste 0 -- -- 83
2020-03-29 09:00:00 8 2 Nordeste 7 Este 0 -- -- 82
2020-03-29 08:00:00 7.9 0 Calma 9 Este 0 -- -- 81
2020-03-29 07:00:00 7.8 2 Nordeste 6 Nordeste 0 -- -- 81
2020-03-29 06:00:00 7.8 4 Nordeste 9 Nordeste 0 -- -- 81
2020-03-29 05:00:00 8.2 3 Nordeste 8 Nordeste 0 -- -- 78
2020-03-29 03:00:00 9.2 4 Nordeste 12 Nordeste 0 -- -- 74
2020-03-29 01:00:00 9.2 2 Norte 8 Nordeste 0 -- -- 77
2020-03-29 00:00:00 10 2 Nordeste 7 Nordeste 0 -- -- 74
2020-03-28 23:00:00 10 3 Nordeste 8 Norte 0 -- -- 71
2020-03-28 22:00:00 10.8 3 Nordeste 6 Nordeste 0 -- -- 65
2020-03-28 21:00:00 11.5 2 Nordeste 5 Nordeste 0 -- -- 62
2020-03-28 20:00:00 13.3 0 Calma 15 Nordeste 0 -- -- 57
2020-03-28 19:00:00 15 2 Noroeste 10 Norte 0 -- -- 62
2020-03-28 18:00:00 16 2 Noroeste 16 Oeste 0 -- -- 52
2020-03-28 17:00:00 16.3 5 Noroeste 18 Oeste 0 -- -- 47
2020-03-28 16:00:00 16.9 4 Noroeste 18 Noroeste 0 -- -- 48
2020-03-28 15:00:00 17 6 Noroeste 19 Noroeste 0 -- -- 49
2020-03-28 14:00:00 17.3 4 Noroeste 17 Oeste 0 -- -- 47
2020-03-28 13:00:00 17.3 5 Noroeste 14 Oeste 0 -- -- 46
2020-03-28 12:00:00 17.4 6 Sur 14 Sur 0 -- -- 42
2020-03-28 11:00:00 15.4 4 Sudeste 12 Sudeste 0 -- -- 46
2020-03-28 10:00:00 11.4 0 Calma 8 Este 0 -- -- 73
2020-03-28 09:00:00 7.1 0 Calma 5 Sudeste 0 -- -- 82
2020-03-28 08:00:00 5.8 0 Calma 4 Este 0 -- -- 81
2020-03-28 07:00:00 7 3 Nordeste 16 Nordeste 0 -- -- 76
2020-03-28 06:00:00 6.8 0 Calma 10 Nordeste 0 -- -- 77
2020-03-28 05:00:00 6.4 0 Calma 7 Sudeste 0 -- -- 80
2020-03-28 04:00:00 6.4 4 Este 8 Este 0 -- -- 84
2020-03-28 03:00:00 6.4 3 Este 7 Este 0 -- -- 84
2020-03-28 02:00:00 7.4 3 Este 9 Este 0 -- -- 78
2020-03-28 01:00:00 7.5 3 Nordeste 5 Nordeste 0 -- -- 79
2020-03-28 00:00:00 7.6 0 Calma 4 Nordeste 0 -- -- 80
2020-03-27 23:00:00 8 3 Nordeste 4 Nordeste 0 -- -- 79
2020-03-27 22:00:00 8.8 2 Este 3 Este 0 -- -- 74
2020-03-27 21:00:00 9.5 2 Nordeste 3 Nordeste 0 -- -- 70
2020-03-27 20:00:00 10.8 0 Calma 9 Noroeste 0 -- -- 67
2020-03-27 19:00:00 12.3 0 Calma 18 Oeste 0 -- -- 65
2020-03-27 18:00:00 13.3 3 Noroeste 17 Sudoeste 0 -- -- 61
2020-03-27 17:00:00 13.8 5 Noroeste 21 Noroeste 0 -- -- 56
2020-03-27 16:00:00 14.2 5 Noroeste 24 Oeste 0 -- -- 60
2020-03-27 15:00:00 14.9 4 Noroeste 21 Noroeste 0 -- -- 52
2020-03-27 14:00:00 15.9 8 Sudeste 24 Sudeste 0 -- -- 42
2020-03-27 13:00:00 14.8 7 Sudeste 26 Sudeste 0 -- -- 46
2020-03-27 12:00:00 13.4 12 Sudeste 29 Sudeste 0 -- -- 49
2020-03-27 11:00:00 11.6 4 Este 19 Sudoeste 0 -- -- 54
2020-03-27 10:00:00 9.4 3 Noroeste 24 Nordeste 0 -- -- 63
2020-03-27 09:00:00 6.6 5 Nordeste 16 Nordeste 0 -- -- 71
2020-03-27 08:00:00 5.8 4 Norte 17 Nordeste 0 -- -- 76
2020-03-27 07:00:00 5.7 5 Nordeste 16 Norte 0 -- -- 79
2020-03-27 06:00:00 5.8 3 Nordeste 9 Este 0 -- -- 83
2020-03-27 05:00:00 5.6 0 Calma 5 Norte 0 -- -- 87
2020-03-27 04:00:00 6.2 0 Calma 9 Sudoeste 0 -- -- 84
2020-03-27 03:00:00 6.7 0 Calma 10 Sudeste 0 -- -- 81
2020-03-27 02:00:00 7.2 2 Nordeste 13 Nordeste 0 -- -- 77
2020-03-27 01:00:00 7.1 2 Norte 11 Este 0 -- -- 78
2020-03-27 00:00:00 7.8 0 Calma 22 Este 0 -- -- 73
2020-03-26 23:00:00 8.5 3 Nordeste 21 Este 0 -- -- 70
2020-03-26 22:00:00 9 3 Nordeste 10 Este 0 -- -- 73
2020-03-26 21:00:00 9.5 2 Norte 20 Norte 0 -- -- 74
2020-03-26 20:00:00 10.7 4 Norte 18 Nordeste 0 -- -- 67
2020-03-26 19:00:00 12.5 4 Norte 17 Oeste 0 -- -- 63
2020-03-26 18:00:00 14.5 4 Noroeste 20 Noroeste 0 -- -- 58
2020-03-26 17:00:00 15.8 4 Noroeste 18 Oeste 0 -- -- 52
2020-03-26 16:00:00 17.5 5 Noroeste 20 Norte 0 -- -- 44
2020-03-26 15:00:00 18.4 4 Noroeste 19 Oeste 0 -- -- 42
2020-03-26 14:00:00 18 6 Este 19 Sudoeste 0 -- -- 39
2020-03-26 13:00:00 17.4 3 Noroeste 12 Este 0 -- -- 45
2020-03-26 12:00:00 15.2 3 Este 15 Norte 0 -- -- 52
2020-03-26 11:00:00 12.6 4 Este 17 Nordeste 0 -- -- 65
2020-03-26 10:00:00 10.5 2 Noroeste 9 Norte 0 -- -- 82
2020-03-26 09:00:00 7.2 2 Sur 5 Sudeste 0 -- -- 95
2020-03-26 08:00:00 6.5 0 Calma 8 Nordeste 0 -- -- 95
2020-03-26 07:00:00 7.2 2 Norte 9 Norte 0 -- -- 95
2020-03-26 06:00:00 7.5 0 Calma 7 Nordeste 0 -- -- 94
2020-03-26 05:00:00 7.2 2 Sudeste 4 Sudeste 0 -- -- 96
2020-03-26 04:00:00 7.6 2 Sudeste 6 Nordeste 0 -- -- 95
2020-03-26 03:00:00 8.2 3 Nordeste 8 Norte 0 -- -- 94
2020-03-26 02:00:00 8.7 0 Calma 9 Nordeste 0 -- -- 92
2020-03-26 01:00:00 9.2 2 Nordeste 14 Este 0 -- -- 95
2020-03-26 00:00:00 9.1 4 Norte 13 Norte 0 -- -- 93
2020-03-25 23:00:00 10.1 0 Calma 9 Nordeste 0 -- -- 90
2020-03-25 22:00:00 10.9 0 Calma 4 Nordeste 0 -- -- 86
2020-03-25 21:00:00 12.2 0 Calma 5 Nordeste 0 -- -- 81
2020-03-25 20:00:00 13.6 0 Calma 4 Oeste 0 -- -- 81
2020-03-25 19:00:00 15.1 0 Calma 9 Noroeste 0 -- -- 79
2020-03-25 18:00:00 16.3 3 Noroeste 14 Oeste 0 -- -- 76
2020-03-25 17:00:00 16.3 3 Noroeste 21 Noroeste 0 -- -- 75
2020-03-25 16:00:00 16.9 4 Noroeste 15 Noroeste 0 -- -- 74
2020-03-25 15:00:00 16.6 4 Noroeste 17 Noroeste 0 -- -- 76
2020-03-25 14:00:00 16.4 3 Oeste 17 Noroeste 0 -- -- 77
2020-03-25 13:00:00 15.3 4 Noroeste 17 Oeste 0 -- -- 80
2020-03-25 12:00:00 15.5 2 Oeste 8 Oeste 0 -- -- 77
2020-03-25 11:00:00 15.1 2 Oeste 6 Oeste 0 -- -- 75
2020-03-25 10:00:00 12.3 0 Calma 3 Oeste 0 -- -- 86
2020-03-25 09:00:00 9.2 0 Calma 3 Sudeste 0 -- -- 95
2020-03-25 08:00:00 8.5 0 Calma 2 Este 0 -- -- 93
2020-03-25 07:00:00 9 0 Calma 2 Este 0 -- -- 92
2020-03-25 06:00:00 9.4 0 Calma 2 Nordeste 0 -- -- 91
2020-03-25 05:00:00 9.7 0 Calma 2 Nordeste 0 -- -- 90
2020-03-25 04:00:00 10 0 Calma 2 Este 0 -- -- 88
2020-03-25 03:00:00 10.5 0 Calma 3 Sudeste 0 -- -- 86
2020-03-25 02:00:00 10.8 0 Calma 4 Nordeste 0 -- -- 83
2020-03-25 01:00:00 11 2 Este 4 Este 0 -- -- 82
2020-03-25 00:00:00 11.6 0 Calma 5 Sudeste 0 -- -- 80
2020-03-24 23:00:00 12.4 2 Este 6 Sudeste 0 -- -- 79
2020-03-24 22:00:00 13.2 0 Calma 4 Nordeste 0 -- -- 76
2020-03-24 21:00:00 14.1 0 Calma 5 Nordeste 0 -- -- 73
2020-03-24 20:00:00 15.3 0 Calma 9 Noroeste 0 -- -- 69
2020-03-24 19:00:00 16.9 2 Noroeste 9 Noroeste 0 -- -- 63
2020-03-24 18:00:00 18.3 2 Noroeste 13 Noroeste 0 -- -- 57
2020-03-24 17:00:00 18.9 3 Oeste 18 Noroeste 0 -- -- 53
2020-03-24 16:00:00 19.7 4 Noroeste 19 Oeste 0 -- -- 53
2020-03-24 15:00:00 20.6 5 Noroeste 17 Noroeste 0 -- -- 50
2020-03-24 14:00:00 21.4 4 Oeste 14 Sudoeste 0 -- -- 48
2020-03-24 13:00:00 20.8 2 Oeste 15 Sur 0 -- -- 49
2020-03-24 12:00:00 19.9 4 Sur 12 Sur 0 -- -- 50
2020-03-24 11:00:00 17.7 4 Este 16 Sudeste 0 -- -- 59
2020-03-24 10:00:00 14 3 Este 16 Nordeste 0 -- -- 74
2020-03-24 09:00:00 10.2 6 Este 14 Sudeste 0 -- -- 88
2020-03-24 08:00:00 8.4 3 Nordeste 9 Este 0 -- -- 93
2020-03-24 07:00:00 9 3 Nordeste 10 Este 0 -- -- 92
2020-03-24 06:00:00 8.8 0 Calma 8 Este 0 -- -- 92
2020-03-24 05:00:00 9.1 2 Nordeste 9 Este 0 -- -- 91
2020-03-24 04:00:00 9.6 3 Nordeste 12 Nordeste 0 -- -- 89
2020-03-24 03:00:00 9.6 3 Norte 15 Norte 0 -- -- 89
2020-03-24 02:00:00 9.8 3 Nordeste 12 Noroeste 0 -- -- 88
2020-03-24 01:00:00 9.7 3 Nordeste 13 Este 0 -- -- 88
2020-03-24 00:00:00 9.4 2 Nordeste 9 Nordeste 0 -- -- 89
2020-03-23 23:00:00 9.3 2 Noroeste 21 Este 0 -- -- 88
2020-03-23 22:00:00 9.7 3 Norte 12 Noroeste 0 -- -- 85
2020-03-23 21:00:00 10 4 Norte 24 Nordeste 0 -- -- 83
2020-03-23 20:00:00 10.5 8 Nordeste 25 Norte 0 -- -- 82
2020-03-23 19:00:00 12.1 4 Noroeste 16 Norte 0 -- -- 80
2020-03-23 18:00:00 13.2 6 Norte 23 Norte 0 -- -- 76
2020-03-23 17:00:00 14 6 Norte 23 Nordeste 0 -- -- 73
2020-03-23 16:00:00 16.5 6 Norte 22 Noroeste 0 -- -- 67
2020-03-23 15:00:00 17.4 4 Nordeste 16 Este 0 -- -- 68
2020-03-23 14:00:00 16.6 8 Nordeste 23 Noroeste 0 -- -- 66
2020-03-23 13:00:00 15 5 Norte 22 Este 0 -- -- 71
2020-03-23 12:00:00 15.4 5 Nordeste 22 Nordeste 0 -- -- 71
2020-03-23 11:00:00 13.8 4 Este 17 Nordeste 0 -- -- 77
2020-03-23 10:00:00 12.6 4 Norte 20 Norte 0 -- -- 83
2020-03-23 09:00:00 10.8 3 Norte 10 Nordeste 0 -- -- 90
2020-03-23 08:00:00 10.1 0 Calma 15 Nordeste 0 -- -- 90
2020-03-23 07:00:00 9.9 3 Nordeste 15 Nordeste 0 -- -- 91
2020-03-23 06:00:00 9.8 2 Norte 11 Nordeste 0 -- -- 93
2020-03-23 05:00:00 9.9 0 Calma 12 Nordeste 0 -- -- 93
2020-03-23 04:00:00 10.4 0 Calma 6 Nordeste 0 -- -- 89
2020-03-23 03:00:00 10.8 0 Calma 12 Norte 0 -- -- 88
2020-03-23 02:00:00 11 2 Norte 11 Nordeste 0 -- -- 88
2020-03-23 01:00:00 11.4 3 Nordeste 14 Nordeste 0 -- -- 86
2020-03-23 00:00:00 11 0 Calma 12 Nordeste 0 -- -- 88
2020-03-22 23:00:00 11.4 2 Norte 10 Nordeste 0 -- -- 87
2020-03-22 22:00:00 11.8 3 Norte 13 Norte 0 -- -- 88
2020-03-22 21:00:00 12.3 4 Nordeste 14 Este 0 -- -- 86
2020-03-22 20:00:00 12.8 3 Noroeste 18 Norte 0 -- -- 85
2020-03-22 19:00:00 13.9 5 Nordeste 21 Nordeste 0 -- -- 81
2020-03-22 18:00:00 15.8 3 Noroeste 14 Noroeste 0 -- -- 78
2020-03-22 17:00:00 17.3 4 Norte 13 Norte 0 -- -- 73
2020-03-22 16:00:00 18.4 3 Noroeste 12 Sudeste 0 -- -- 74
2020-03-22 15:00:00 17.7 3 Sudeste 17 Sudeste 0 -- -- 70
2020-03-22 14:00:00 16.7 4 Este 15 Nordeste 0 -- -- 72
2020-03-22 13:00:00 15.8 5 Sudeste 17 Este 0 -- -- 74
2020-03-22 12:00:00 13.3 4 Este 14 Sudeste 0 -- -- 83
2020-03-22 11:00:00 12.1 4 Este 14 Norte 0 -- -- 86
2020-03-22 10:00:00 11.2 0 Calma 9 Norte 0 -- -- 92
2020-03-22 09:00:00 10.5 2 Nordeste 9 Nordeste 0 -- -- 95
2020-03-22 08:00:00 10.2 0 Calma 5 Este 0 -- -- 97
2020-03-22 07:00:00 10.3 0 Calma 5 Nordeste 0 -- -- 98
2020-03-22 06:00:00 10.5 0 Calma 5 Norte 0 -- -- 98
2020-03-22 05:00:00 10.7 0 Calma 5 Este 0 -- -- 98
2020-03-22 04:00:00 10.6 0 Calma 5 Norte 0 -- -- 98
2020-03-22 03:00:00 10.8 0 Calma 4 Oeste 0 -- -- 98
2020-03-22 02:00:00 11 0 Calma 4 Nordeste 0.2 -- -- 98
2020-03-22 01:00:00 11.2 0 Calma 6 Norte 0 -- -- 98
2020-03-22 00:00:00 11.2 0 Calma 6 Sudeste 0.2 -- -- 98
2020-03-21 23:00:00 11.7 0 Calma 8 Oeste 0.8 -- -- 96
2020-03-21 22:00:00 12.4 3 Este 9 Nordeste 0 -- -- 93
2020-03-21 21:00:00 12.5 0 Calma 4 Nordeste 0 -- -- 94
2020-03-21 20:00:00 12.8 2 Este 5 Sudoeste 0 -- -- 91
2020-03-21 19:00:00 12.9 0 Calma 10 Oeste 0 -- -- 91
2020-03-21 18:00:00 13.1 0 Calma 8 Oeste 0 -- -- 91
2020-03-21 17:00:00 13.2 0 Calma 11 Oeste 0 -- -- 89
2020-03-21 16:00:00 14.3 2 Noroeste 16 Oeste 0 -- -- 86
2020-03-21 15:00:00 14.4 3 Oeste 17 Oeste 0 -- -- 86
2020-03-21 14:00:00 14.8 3 Noroeste 14 Noroeste 0 -- -- 87
2020-03-21 13:00:00 16.4 2 Sudoeste 9 Sudeste 0 -- -- 80
2020-03-21 12:00:00 15.2 2 Oeste 6 Oeste 0 -- -- 86
2020-03-21 11:00:00 13.5 3 Este 9 Este 0 -- -- 90
2020-03-21 10:00:00 12.1 4 Este 11 Nordeste 0 -- -- 97
2020-03-21 09:00:00 11.2 3 Nordeste 6 Sudeste 0 -- -- 100
2020-03-21 08:00:00 11 2 Este 7 Nordeste 0 -- -- 100
2020-03-21 07:00:00 10.9 2 Este 8 Sudeste 0.2 -- -- 100
2020-03-21 06:00:00 10.8 7 Sudeste 11 Sudeste 0 -- -- 100
2020-03-21 05:00:00 10.8 0 Calma 12 Nordeste 0.2 -- -- 100
2020-03-21 04:00:00 10.8 0 Calma 6 Este 0 -- -- 100
2020-03-21 03:00:00 10.8 3 Nordeste 10 Nordeste 0 -- -- 100
2020-03-21 02:00:00 10.9 2 Este 7 Este 0 -- -- 100
2020-03-21 01:00:00 11.1 0 Calma 4 Norte 0 -- -- 100
2020-03-21 00:00:00 11.4 2 Sudeste 4 Sudeste 0 -- -- 100
2020-03-20 23:00:00 11.4 0 Calma 4 Nordeste 0 -- -- 100
2020-03-20 22:00:00 11.5 0 Calma 4 Sudeste 0.4 -- -- 99
2020-03-20 21:00:00 11.9 0 Calma 4 Nordeste 0.4 -- -- 100
2020-03-20 20:00:00 11.9 0 Calma 4 Oeste 0 -- -- 99
2020-03-20 19:00:00 12.2 0 Calma 5 Noroeste 0.2 -- -- 98
2020-03-20 18:00:00 12.6 0 Calma 4 Oeste 0.2 -- -- 98
2020-03-20 17:00:00 12.5 0 Calma 4 Oeste 0.8 -- -- 98
2020-03-20 16:00:00 12.6 0 Calma 7 Oeste 0 -- -- 97
2020-03-20 15:00:00 13.1 2 Noroeste 10 Oeste 0.2 -- -- 95
2020-03-20 14:00:00 13.8 2 Oeste 7 Oeste 0 -- -- 95
2020-03-20 13:00:00 13.9 0 Calma 10 Sur 0 -- -- 93
2020-03-20 12:00:00 13.5 2 Sudoeste 6 Sudoeste 0 -- -- 94
2020-03-20 11:00:00 13.1 0 Calma 3 Este 0 -- -- 94
2020-03-20 10:00:00 12.4 0 Calma 4 Este 0 -- -- 97
2020-03-20 09:00:00 11.9 2 Sudeste 8 Sudeste 0.2 -- -- 97
2020-03-20 08:00:00 11.8 2 Este 10 Sudeste 0 -- -- 97
2020-03-20 07:00:00 11.8 4 Sudeste 14 Sudeste 0.2 -- -- 99
2020-03-20 06:00:00 11.9 7 Sudeste 14 Sudeste 0 -- -- 99
2020-03-20 05:00:00 12 3 Sur 10 Sur 0 -- -- 100
2020-03-20 04:00:00 11.8 4 Sur 8 Sur 0 -- -- 99
2020-03-20 03:00:00 11.8 4 Sudeste 8 Sudeste 0 -- -- 99
2020-03-20 02:00:00 12 2 Nordeste 5 Nordeste 0.4 -- -- 98
2020-03-20 01:00:00 11.9 3 Nordeste 10 Sudeste 3.2 -- -- 96
2020-03-20 00:00:00 12.5 4 Este 11 Sudeste 0 -- -- 91
2020-03-19 23:00:00 12.2 2 Nordeste 4 Nordeste 0 -- -- 91
2020-03-19 22:00:00 12.5 0 Calma 12 Este 0 -- -- 89
2020-03-19 21:00:00 13.1 2 Nordeste 10 Norte 0 -- -- 89
2020-03-19 20:00:00 13.8 0 Calma 8 Oeste 0 -- -- 86
2020-03-19 19:00:00 15.2 0 Calma 7 Oeste 0 -- -- 77
2020-03-19 18:00:00 16 2 Noroeste 11 Norte 0 -- -- 78
2020-03-19 17:00:00 16.2 2 Noroeste 9 Oeste 0 -- -- 76
2020-03-19 16:00:00 16.2 3 Noroeste 10 Noroeste 0 -- -- 79
2020-03-19 15:00:00 15.6 3 Noroeste 14 Oeste 0 -- -- 77
2020-03-19 14:00:00 17.9 4 Noroeste 13 Oeste 0 -- -- 69
2020-03-19 13:00:00 19 3 Sur 10 Sur 0 -- -- 67
2020-03-19 12:00:00 17.1 2 Oeste 6 Sudoeste 0 -- -- 72
2020-03-19 11:00:00 14.6 0 Calma 5 Este 0 -- -- 82
2020-03-19 10:00:00 12.2 0 Calma 7 Nordeste 0 -- -- 88
2020-03-19 09:00:00 10.2 2 Este 5 Nordeste 0 -- -- 92
2020-03-19 08:00:00 10 3 Sudeste 8 Nordeste 0 -- -- 90
2020-03-19 07:00:00 10.7 3 Nordeste 13 Nordeste 0 -- -- 88
2020-03-19 06:00:00 11.3 5 Nordeste 13 Nordeste 0 -- -- 85
2020-03-19 05:00:00 11.6 7 Nordeste 16 Nordeste 0 -- -- 83
2020-03-19 04:00:00 11.8 6 Nordeste 14 Este 0 -- -- 81
2020-03-19 03:00:00 12.2 4 Nordeste 13 Nordeste 0 -- -- 78
2020-03-19 02:00:00 12.5 3 Nordeste 13 Norte 0 -- -- 77
2020-03-19 01:00:00 13.1 3 Nordeste 10 Nordeste 0 -- -- 74
2020-03-19 00:00:00 13.8 4 Nordeste 10 Norte 0 -- -- 71
2020-03-18 23:00:00 14.1 5 Nordeste 11 Norte 0 -- -- 70
2020-03-18 22:00:00 14.6 3 Nordeste 8 Noroeste 0 -- -- 69
2020-03-18 21:00:00 15.9 2 Nordeste 14 Nordeste 0 -- -- 68
2020-03-18 20:00:00 17.7 3 Norte 9 Norte 0 -- -- 66
2020-03-18 19:00:00 19.7 0 Calma 6 Sudoeste 0 -- -- 64
2020-03-18 18:00:00 20.7 2 Noroeste 9 Oeste 0 -- -- 58
2020-03-18 17:00:00 21.3 3 Noroeste 10 Oeste 0 -- -- 54
2020-03-18 16:00:00 23 3 Oeste 12 Oeste 0 -- -- 51
2020-03-18 15:00:00 23.5 2 Noroeste 13 Este 0 -- -- 44
2020-03-18 14:00:00 23 4 Norte 13 Nordeste 0 -- -- 42
2020-03-18 13:00:00 22 2 Noroeste 9 Norte 0 -- -- 56
2020-03-18 12:00:00 19.8 3 Norte 11 Este 0 -- -- 59
2020-03-18 11:00:00 17.1 4 Nordeste 14 Este 0 -- -- 63
2020-03-18 10:00:00 14.3 5 Nordeste 13 Nordeste 0 -- -- 71
2020-03-18 09:00:00 11.7 4 Nordeste 13 Este 0 -- -- 79
2020-03-18 08:00:00 11 5 Nordeste 14 Nordeste 0 -- -- 81
2020-03-18 07:00:00 11.1 5 Este 13 Sudeste 0 -- -- 82
2020-03-18 06:00:00 11.1 3 Este 10 Nordeste 0 -- -- 82
2020-03-18 05:00:00 11.3 4 Este 12 Nordeste 0 -- -- 82
2020-03-18 04:00:00 10.6 2 Sudeste 15 Nordeste 0 -- -- 86
2020-03-18 03:00:00 11.4 4 Este 13 Este 0 -- -- 82
2020-03-18 02:00:00 11.9 4 Este 12 Este 0 -- -- 80
2020-03-18 01:00:00 12 2 Este 10 Nordeste 0 -- -- 81
2020-03-18 00:00:00 11.8 2 Este 6 Nordeste 0 -- -- 83
2020-03-17 23:00:00 12.5 3 Nordeste 4 Nordeste 0 -- -- 80
2020-03-17 22:00:00 14.6 0 Calma 20 Sudeste 0 -- -- 74
2020-03-17 21:00:00 15.9 5 Este 17 Sudeste 0 -- -- 69
2020-03-17 20:00:00 16 2 Nordeste 10 Nordeste 0 -- -- 70
2020-03-17 19:00:00 17.5 3 Noroeste 13 Nordeste 0 -- -- 67
2020-03-17 18:00:00 19 3 Nordeste 15 Norte 0 -- -- 58
2020-03-17 17:00:00 19.5 5 Nordeste 18 Este 0 -- -- 58
2020-03-17 16:00:00 20.1 6 Norte 17 Este 0 -- -- 54
2020-03-17 15:00:00 19.1 6 Nordeste 18 Sudeste 0 -- -- 53
2020-03-17 14:00:00 17.9 5 Nordeste 17 Este 0 -- -- 55
2020-03-17 13:00:00 16.2 5 Nordeste 20 Norte 0 -- -- 59
2020-03-17 12:00:00 14.6 7 Este 19 Este 0 -- -- 60
2020-03-17 11:00:00 12.6 5 Nordeste 18 Nordeste 0 -- -- 67
2020-03-17 10:00:00 10.1 2 Sur 21 Este 0 -- -- 75
2020-03-17 09:00:00 8 2 Oeste 21 Noroeste 0 -- -- 82
2020-03-17 08:00:00 8.3 5 Este 31 Este 0 -- -- 76
2020-03-17 07:00:00 7.8 8 Nordeste 21 Nordeste 0 -- -- 79
2020-03-17 06:00:00 7.8 4 Nordeste 20 Oeste 0 -- -- 78
2020-03-17 05:00:00 7.6 3 Noroeste 15 Norte 0 -- -- 80
2020-03-17 04:00:00 7.9 4 Noroeste 19 Nordeste 0 -- -- 80
2020-03-17 03:00:00 8 4 Noroeste 33 Nordeste 0 -- -- 80
2020-03-17 02:00:00 8.3 4 Sudeste 23 Este 0 -- -- 79
2020-03-17 01:00:00 8.2 4 Nordeste 20 Norte 0 -- -- 78
2020-03-17 00:00:00 8.1 3 Nordeste 22 Oeste 0 -- -- 81
2020-03-16 23:00:00 8.2 2 Noroeste 19 Norte 0 -- -- 81
2020-03-16 22:00:00 8.7 4 Norte 18 Nordeste 0 -- -- 79
2020-03-16 21:00:00 9 3 Este 18 Nordeste 0 -- -- 77
2020-03-16 20:00:00 9.5 5 Norte 22 Este 0 -- -- 75
2020-03-16 19:00:00 10.1 3 Noroeste 23 Norte 0 -- -- 75
2020-03-16 18:00:00 11.2 6 Norte 29 Norte 0 -- -- 70
2020-03-16 17:00:00 11.9 6 Norte 24 Nordeste 0 -- -- 68
2020-03-16 16:00:00 12.3 6 Norte 36 Nordeste 0 -- -- 66
2020-03-16 15:00:00 11.6 8 Nordeste 26 Noroeste 0 -- -- 67
2020-03-16 14:00:00 12.7 5 Norte 35 Nordeste 0 -- -- 65
2020-03-16 13:00:00 11.7 5 Noroeste 28 Norte 0 -- -- 76
2020-03-16 12:00:00 10.6 3 Noroeste 26 Nordeste 0.2 -- -- 84
2020-03-16 11:00:00 9.5 5 Noroeste 23 Nordeste 0 -- -- 93
2020-03-16 10:00:00 7 0 Calma 9 Noroeste 0 -- -- 100
2020-03-16 09:00:00 5.1 0 Calma 3 Este 0 -- -- 100
2020-03-16 08:00:00 4.1 0 Calma 4 Sudeste 0.2 -- -- 100
2020-03-16 07:00:00 4.7 0 Calma 6 Oeste 0.2 -- -- 100
2020-03-16 06:00:00 4.8 0 Calma 5 Sudeste 0.2 -- -- 100
2020-03-16 05:00:00 4.5 0 Calma 6 Sudoeste 0 -- -- 100
2020-03-16 04:00:00 4.7 0 Calma 7 Nordeste 0.2 -- -- 100
2020-03-16 03:00:00 4.8 0 Calma 4 Norte 0 -- -- 100
2020-03-16 02:00:00 4.6 0 Calma 5 Oeste 0.4 -- -- 100
2020-03-16 01:00:00 5.1 0 Calma 7 Este 0.2 -- -- 100
2020-03-16 00:00:00 4.9 0 Calma 4 Este 0 -- -- 99
2020-03-15 23:00:00 5 0 Calma 7 Oeste 0.6 -- -- 99
2020-03-15 22:00:00 5.1 0 Calma 5 Nordeste 0 -- -- 98
2020-03-15 21:00:00 5.7 0 Calma 5 Sudeste 0.2 -- -- 95
2020-03-15 20:00:00 6.6 3 Norte 13 Noroeste 1.2 -- -- 92
2020-03-15 19:00:00 8 3 Noroeste 10 Oeste 0 -- -- 90
2020-03-15 18:00:00 8.8 0 Calma 6 Oeste 0 -- -- 95
2020-03-15 17:00:00 8.1 0 Calma 14 Oeste 0.2 -- -- 90
2020-03-15 16:00:00 8.9 2 Noroeste 11 Sudoeste 0.4 -- -- 89
2020-03-15 15:00:00 9 0 Calma 4 Norte 0 -- -- 92
2020-03-15 14:00:00 8.7 0 Calma 6 Oeste 0.2 -- -- 97
2020-03-15 13:00:00 8.4 0 Calma 6 Norte 1.2 -- -- 98
2020-03-15 12:00:00 8.7 2 Noroeste 18 Nordeste 1.6 -- -- 97
2020-03-15 11:00:00 9.7 3 Noroeste 16 Sur 1 -- -- 94
2020-03-15 10:00:00 10 8 Sudeste 18 Sudeste 0 -- -- 96
2020-03-15 09:00:00 9.1 8 Sudeste 16 Sudeste 0 -- -- 97
2020-03-15 08:00:00 8.4 8 Sudeste 14 Sudeste 0 -- -- 96
2020-03-15 07:00:00 8.1 6 Sudeste 11 Sudeste 0 -- -- 97
2020-03-15 06:00:00 6.8 0 Calma 7 Oeste 0 -- -- 97
2020-03-15 05:00:00 6.9 0 Calma 5 Nordeste 0 -- -- 98
2020-03-15 04:00:00 5.9 0 Calma 3 Nordeste 0 -- -- 96
2020-03-15 03:00:00 6.5 2 Sudeste 4 Sudeste 0 -- -- 95
2020-03-15 02:00:00 7.3 0 Calma 6 Norte 0 -- -- 92
2020-03-15 01:00:00 8.3 4 Nordeste 10 Nordeste 0 -- -- 92
2020-03-15 00:00:00 8.6 3 Nordeste 6 Nordeste 0 -- -- 91
2020-03-14 23:00:00 9.4 0 Calma 5 Nordeste 0 -- -- 89
2020-03-14 22:00:00 10.3 2 Norte 9 Nordeste 0 -- -- 86
2020-03-14 21:00:00 11.6 3 Norte 11 Nordeste 0 -- -- 80
2020-03-14 20:00:00 13.4 0 Calma 9 Oeste 0 -- -- 74
2020-03-14 19:00:00 15.2 2 Noroeste 9 Noroeste 0 -- -- 74
2020-03-14 18:00:00 17.1 2 Noroeste 9 Oeste 0 -- -- 67
2020-03-14 17:00:00 18.5 3 Noroeste 14 Sudeste 0 -- -- 61
2020-03-14 16:00:00 18.6 4 Este 15 Este 0 -- -- 54
2020-03-14 15:00:00 17.7 4 Este 17 Sudeste 0 -- -- 55
2020-03-14 14:00:00 16.6 8 Este 19 Este 0 -- -- 58
2020-03-14 13:00:00 15.6 7 Este 19 Sudeste 0 -- -- 62
2020-03-14 12:00:00 14 5 Este 16 Este 0 -- -- 65
2020-03-14 11:00:00 12.1 4 Este 9 Sudeste 0 -- -- 72
2020-03-14 10:00:00 8.5 0 Calma 8 Nordeste 0 -- -- 87
2020-03-14 09:00:00 6.8 2 Nordeste 8 Este 0 -- -- 90
2020-03-14 08:00:00 6.6 3 Este 10 Este 0 -- -- 91
2020-03-14 07:00:00 7 3 Sudeste 9 Sudeste 0 -- -- 88
2020-03-14 06:00:00 7.2 4 Este 8 Este 0 -- -- 89
2020-03-14 05:00:00 7 0 Calma 8 Nordeste 0 -- -- 90
2020-03-14 04:00:00 7 0 Calma 7 Nordeste 0 -- -- 90
2020-03-14 03:00:00 7.1 2 Este 5 Nordeste 0 -- -- 90
2020-03-14 02:00:00 7.7 2 Nordeste 8 Norte 0 -- -- 87
2020-03-14 01:00:00 8.4 2 Nordeste 12 Este 0 -- -- 84
2020-03-14 00:00:00 8.7 2 Norte 15 Nordeste 0 -- -- 85
2020-03-13 23:00:00 8.8 2 Noroeste 14 Este 0 -- -- 86
2020-03-13 22:00:00 8.6 2 Norte 14 Nordeste 0 -- -- 86
2020-03-13 21:00:00 9 0 Calma 11 Noroeste 0 -- -- 84
2020-03-13 20:00:00 9.9 2 Noroeste 18 Nordeste 0 -- -- 82
2020-03-13 19:00:00 11.7 5 Norte 15 Norte 0 -- -- 75
2020-03-13 18:00:00 13.3 3 Noroeste 23 Oeste 0 -- -- 72
2020-03-13 17:00:00 13.8 5 Norte 23 Nordeste 0 -- -- 69
2020-03-13 16:00:00 13.9 5 Nordeste 29 Nordeste 0 -- -- 66
2020-03-13 15:00:00 13.6 8 Nordeste 27 Sudeste 0 -- -- 67
2020-03-13 14:00:00 13.5 6 Nordeste 24 Norte 0 -- -- 67
2020-03-13 13:00:00 12.7 11 Este 33 Este 0 -- -- 68
2020-03-13 12:00:00 11.9 5 Nordeste 22 Nordeste 0 -- -- 69
2020-03-13 11:00:00 10.6 5 Nordeste 22 Norte 0 -- -- 74
2020-03-13 10:00:00 10.2 5 Nordeste 22 Norte 0 -- -- 75
2020-03-13 09:00:00 9.2 3 Noroeste 18 Nordeste 0 -- -- 80
2020-03-13 08:00:00 8.6 3 Este 19 Nordeste 0 -- -- 80
2020-03-13 07:00:00 8.6 5 Nordeste 18 Este 0 -- -- 80
2020-03-13 06:00:00 8.9 5 Nordeste 21 Este 0 -- -- 78
2020-03-13 05:00:00 8.9 8 Nordeste 23 Norte 0 -- -- 77
2020-03-13 04:00:00 8.9 5 Nordeste 23 Nordeste 0 -- -- 78
2020-03-13 03:00:00 8.1 3 Norte 22 Nordeste 0 -- -- 81
2020-03-13 02:00:00 8.3 6 Nordeste 23 Norte 0 -- -- 77
2020-03-13 01:00:00 8.4 7 Nordeste 24 Nordeste 0 -- -- 79
2020-03-13 00:00:00 8.8 6 Nordeste 27 Este 0 -- -- 81
2020-03-12 23:00:00 9 6 Nordeste 22 Norte 0 -- -- 81
2020-03-12 22:00:00 9.4 5 Nordeste 22 Norte 0 -- -- 79
2020-03-12 21:00:00 9.7 4 Norte 23 Norte 0 -- -- 79
2020-03-12 20:00:00 10.1 5 Norte 23 Norte 0 -- -- 79
2020-03-12 19:00:00 10.8 5 Norte 31 Nordeste 0 -- -- 76
2020-03-12 18:00:00 11.7 6 Norte 33 Norte 0 -- -- 73
2020-03-12 17:00:00 12.2 5 Noroeste 25 Norte 0 -- -- 75
2020-03-12 16:00:00 12.4 6 Norte 22 Nordeste 0 -- -- 78
2020-03-12 15:00:00 13.1 5 Noroeste 22 Nordeste 0 -- -- 78
2020-03-12 14:00:00 13.9 5 Norte 21 Nordeste 0 -- -- 77
2020-03-12 13:00:00 13.7 4 Norte 19 Noroeste 0 -- -- 76
2020-03-12 12:00:00 14 3 Este 15 Sudeste 0 -- -- 78
2020-03-12 11:00:00 12.8 4 Nordeste 13 Norte 0 -- -- 83
2020-03-12 10:00:00 11.9 3 Norte 14 Norte 0 -- -- 89
2020-03-12 09:00:00 10.2 0 Calma 5 Norte 0 -- -- 94
2020-03-12 08:00:00 9.4 0 Calma 5 Nordeste 0 -- -- 98
2020-03-12 07:00:00 9.8 0 Calma 5 Este 0 -- -- 98
2020-03-12 06:00:00 10.3 0 Calma 13 Sudeste 0 -- -- 98
2020-03-12 05:00:00 9.9 3 Nordeste 8 Norte 0 -- -- 99
2020-03-12 04:00:00 9.6 2 Nordeste 5 Este 0 -- -- 99
2020-03-12 03:00:00 9.5 3 Este 6 Sudeste 0 -- -- 98
2020-03-12 02:00:00 9.4 0 Calma 5 Este 0 -- -- 98
2020-03-12 01:00:00 9.8 0 Calma 4 Este 0 -- -- 98
2020-03-12 00:00:00 10.5 2 Este 4 Sudeste 0 -- -- 97
2020-03-11 23:00:00 11 0 Calma 4 Nordeste 0 -- -- 96
2020-03-11 22:00:00 11.8 0 Calma 3 Nordeste 0 -- -- 95
2020-03-11 21:00:00 12.9 2 Nordeste 3 Nordeste 0 -- -- 92
2020-03-11 20:00:00 13.7 0 Calma 2 Nordeste 0 -- -- 91
2020-03-11 19:00:00 14.2 0 Calma 5 Noroeste 0 -- -- 89
2020-03-11 18:00:00 14.4 0 Calma 14 Oeste 0 -- -- 88
2020-03-11 17:00:00 15 2 Noroeste 13 Noroeste 0 -- -- 86
2020-03-11 16:00:00 15 3 Noroeste 10 Oeste 0 -- -- 87
2020-03-11 15:00:00 14.8 3 Noroeste 14 Norte 0 -- -- 86
2020-03-11 14:00:00 15.4 2 Norte 8 Noroeste 0 -- -- 86
2020-03-11 13:00:00 14.5 2 Oeste 6 Oeste 0 -- -- 88
2020-03-11 12:00:00 13.6 2 Sudeste 6 Nordeste 0 -- -- 90
2020-03-11 11:00:00 12.6 2 Noroeste 6 Este 0 -- -- 93
2020-03-11 10:00:00 11.9 2 Este 6 Este 0 -- -- 96
2020-03-11 09:00:00 11.4 0 Calma 4 Sudeste 0 -- -- 99
2020-03-11 08:00:00 11.2 2 Este 5 Este 0 -- -- 99
2020-03-11 07:00:00 11.2 2 Sudeste 5 Sudeste 0 -- -- 99
2020-03-11 06:00:00 11.3 0 Calma 2 Sudeste 0 -- -- 100
2020-03-11 05:00:00 11.4 0 Calma 3 Sudeste 0 -- -- 100
2020-03-11 04:00:00 11.4 2 Sudeste 5 Sudeste 0 -- -- 100
2020-03-11 03:00:00 11.5 3 Sudeste 6 Sudeste 0 -- -- 100
2020-03-11 02:00:00 11.7 3 Sudeste 9 Sudeste 0 -- -- 100
2020-03-11 01:00:00 11.7 3 Sur 8 Sudeste 0 -- -- 99
2020-03-11 00:00:00 11.8 3 Sudeste 6 Sudeste 0 -- -- 98
2020-03-10 23:00:00 11.9 3 Sur 9 Sudeste 0 -- -- 98
2020-03-10 22:00:00 12 3 Sudeste 5 Sudeste 0 -- -- 96
2020-03-10 21:00:00 12.3 3 Sudeste 5 Sudeste 0 -- -- 95
2020-03-10 20:00:00 12.5 2 Sudeste 5 Sur 0 -- -- 94
2020-03-10 19:00:00 12.8 2 Este 9 Sudeste 0 -- -- 93
2020-03-10 18:00:00 12.9 7 Sur 13 Sur 0 -- -- 92
2020-03-10 17:00:00 12.7 8 Sur 17 Sur 0 -- -- 92
2020-03-10 16:00:00 12.6 7 Sur 18 Sudeste 0 -- -- 91
2020-03-10 15:00:00 12.7 5 Sur 14 Sudeste 0 -- -- 90
2020-03-10 14:00:00 12.7 7 Sur 19 Sur 0 -- -- 89
2020-03-10 13:00:00 12.5 4 Sur 14 Sur 0 -- -- 90
2020-03-10 12:00:00 12 6 Sur 12 Sudeste 0 -- -- 90
2020-03-10 11:00:00 11.2 5 Sur 10 Sur 0 -- -- 95
2020-03-10 10:00:00 10.5 6 Sur 17 Sur 0 -- -- 96
2020-03-10 09:00:00 9.9 6 Sur 12 Sur 0 -- -- 98
2020-03-10 08:00:00 9.8 5 Sudeste 12 Sudeste 0 -- -- 98
2020-03-10 07:00:00 9.8 4 Sur 9 Sur 0 -- -- 98
2020-03-10 06:00:00 9.7 5 Sudeste 10 Sudeste 0 -- -- 97
2020-03-10 05:00:00 9.5 5 Sudeste 9 Sudeste 0 -- -- 98
2020-03-10 04:00:00 9.1 6 Sudeste 11 Sudeste 0 -- -- 96
2020-03-10 03:00:00 9 6 Sudeste 10 Este 0 -- -- 95
2020-03-10 02:00:00 8.6 4 Sudeste 8 Sudeste 0 -- -- 94
2020-03-10 01:00:00 8.5 0 Calma 6 Sudeste 0 -- -- 94
2020-03-10 00:00:00 9.4 0 Calma 5 Sur 0 -- -- 92
2020-03-09 23:00:00 9.5 0 Calma 3 Sur 0 -- -- 92
2020-03-09 22:00:00 9.8 0 Calma 4 Sudoeste 0 -- -- 90
2020-03-09 21:00:00 10.6 0 Calma 8 Sudoeste 0 -- -- 87
2020-03-09 20:00:00 11.2 0 Calma 6 Sudoeste 0 -- -- 85
2020-03-09 19:00:00 12.2 2 Noroeste 9 Noroeste 0 -- -- 83
2020-03-09 18:00:00 12.8 3 Oeste 15 Oeste 0 -- -- 80
2020-03-09 17:00:00 13.6 4 Noroeste 16 Sudoeste 0 -- -- 77
2020-03-09 16:00:00 14.3 4 Noroeste 19 Noroeste 0 -- -- 75
2020-03-09 15:00:00 14.3 2 Noroeste 16 Oeste 0 -- -- 75
2020-03-09 14:00:00 14.3 4 Noroeste 12 Noroeste 0 -- -- 71
2020-03-09 13:00:00 13.7 2 Oeste 14 Oeste 0 -- -- 74
2020-03-09 12:00:00 13.3 2 Oeste 8 Sur 0 -- -- 79
2020-03-09 11:00:00 11.4 4 Sudeste 8 Sudeste 0 -- -- 93
2020-03-09 10:00:00 7.7 4 Sudeste 6 Sudeste 0 -- -- 100
2020-03-09 09:00:00 7 0 Calma 4 Sudeste 0 -- -- 100
2020-03-09 08:00:00 6.2 0 Calma 9 Sudeste 0 -- -- 100
2020-03-09 07:00:00 6.2 3 Sudeste 8 Sudeste 0 -- -- 99
2020-03-09 06:00:00 6.4 0 Calma 3 Nordeste 0 -- -- 98
2020-03-09 05:00:00 6.7 0 Calma 5 Este 0 -- -- 98
2020-03-09 04:00:00 7.1 0 Calma 3 Sudeste 0 -- -- 98
2020-03-09 03:00:00 7.8 0 Calma 2 Nordeste 0 -- -- 97
2020-03-09 02:00:00 8.7 0 Calma 3 Este 0 -- -- 96
2020-03-09 01:00:00 9 0 Calma 2 Este 0 -- -- 96
2020-03-09 00:00:00 9.3 0 Calma 6 Noroeste 0 -- -- 94